Time;durP1;ratioP1;P1;durP2;ratioP2;P2;SDS_P1;SDS_P2;PMS_P1;PMS_P2;Temp;Humidity;BMP_temperature;BMP_pressure;BME280_temperature;BME280_humidity;BME280_pressure;Samples;Min_cycle;Max_cycle;Signal;HPM_P1;HPM_P2
2022/04/18 00:02:25;;;;;;;10.15;5.80;;;5.50;99.90;;;;;;4922268;29;20020;-87
2022/04/18 00:04:51;;;;;;;10.85;5.50;;;5.50;99.90;;;;;;4922114;29;20024;-85
2022/04/18 00:07:17;;;;;;;9.05;5.30;;;5.50;99.90;;;;;;4914782;29;20041;-86
2022/04/18 00:09:43;;;;;;;8.95;5.50;;;5.40;99.90;;;;;;4914631;29;20062;-85
2022/04/18 00:12:09;;;;;;;11.40;5.78;;;5.40;99.90;;;;;;4914275;29;20027;-86
2022/04/18 00:14:35;;;;;;;9.85;5.82;;;5.40;99.90;;;;;;4915621;29;20016;-86
2022/04/18 00:17:00;;;;;;;7.90;5.35;;;5.40;99.90;;;;;;4913235;29;20032;-86
2022/04/18 00:19:26;;;;;;;8.20;5.10;;;5.30;99.90;;;;;;4917448;29;20067;-86
2022/04/18 00:21:52;;;;;;;10.77;5.70;;;5.40;99.90;;;;;;4915815;29;20096;-86
2022/04/18 00:24:20;;;;;;;8.93;5.72;;;5.30;99.90;;;;;;4916014;29;20012;-86
2022/04/18 00:26:47;;;;;;;7.13;4.90;;;5.30;99.90;;;;;;4916945;29;20032;-86
2022/04/18 00:29:14;;;;;;;9.98;5.53;;;5.30;99.90;;;;;;4915524;29;20047;-86
2022/04/18 00:31:40;;;;;;;8.45;5.30;;;5.30;99.90;;;;;;4918250;29;20029;-86
2022/04/18 00:34:06;;;;;;;9.45;5.50;;;5.30;99.90;;;;;;4915147;29;20032;-86
2022/04/18 00:36:32;;;;;;;7.63;5.50;;;5.30;99.90;;;;;;4915519;29;20032;-86
2022/04/18 00:38:59;;;;;;;9.43;5.05;;;5.30;99.90;;;;;;4914335;29;20049;-87
2022/04/18 00:41:25;;;;;;;11.48;5.95;;;5.30;99.90;;;;;;4912278;29;20037;-86
2022/04/18 00:43:52;;;;;;;10.32;4.93;;;5.20;99.90;;;;;;4905062;29;20036;-85
2022/04/18 00:46:19;;;;;;;9.43;5.40;;;5.20;99.90;;;;;;4913994;29;20028;-87
2022/04/18 00:48:47;;;;;;;10.38;5.68;;;5.20;99.90;;;;;;4916047;29;20024;-86
2022/04/18 00:51:25;;;;;;;11.18;5.85;;;5.20;99.90;;;;;;4914464;29;20422;-86
2022/04/18 00:53:54;;;;;;;8.85;5.50;;;5.20;99.90;;;;;;4914513;29;20028;-86
2022/04/18 00:56:20;;;;;;;8.50;5.38;;;5.10;99.90;;;;;;4915753;29;20028;-85
2022/04/18 00:58:48;;;;;;;11.30;6.18;;;5.10;99.90;;;;;;4920857;29;20150;-86
2022/04/18 01:01:14;;;;;;;10.18;5.88;;;5.20;99.90;;;;;;4919080;29;20028;-86
2022/04/18 01:03:45;;;;;;;9.75;6.07;;;5.10;99.90;;;;;;4899558;29;20544;-88
2022/04/18 01:06:14;;;;;;;7.57;5.20;;;5.10;99.90;;;;;;4916017;29;20020;-86
2022/04/18 01:08:42;;;;;;;8.57;5.60;;;5.10;99.90;;;;;;4914693;29;20032;-85
2022/04/18 01:11:09;;;;;;;8.30;5.50;;;5.10;99.90;;;;;;4911992;29;20029;-86
2022/04/18 01:13:54;;;;;;;10.55;6.32;;;5.10;99.90;;;;;;4912827;29;20557;-87
2022/04/18 01:16:49;;;;;;;10.00;5.93;;;5.00;99.90;;;;;;4908086;29;20028;-86
2022/04/18 01:19:20;;;;;;;10.00;5.57;;;5.00;99.90;;;;;;4911349;29;20036;-84
2022/04/18 01:21:52;;;;;;;15.85;6.07;;;5.00;99.90;;;;;;4918303;29;20037;-86
2022/04/18 01:30:12;;;;;;;12.60;5.72;;;5.00;99.90;;;;;;4921086;29;20033;-85
2022/04/18 01:32:39;;;;;;;11.15;5.60;;;4.90;99.90;;;;;;4915403;29;20032;-86
2022/04/18 01:35:05;;;;;;;10.48;6.18;;;4.90;99.90;;;;;;4910775;29;20036;-85
2022/04/18 01:37:31;;;;;;;9.10;5.82;;;4.90;99.90;;;;;;4912074;29;20021;-87
2022/04/18 01:40:00;;;;;;;10.90;5.65;;;4.90;99.90;;;;;;4916921;29;20028;-86
2022/04/18 01:42:26;;;;;;;12.48;5.95;;;4.90;99.90;;;;;;4920550;29;20101;-86
2022/04/18 01:44:52;;;;;;;9.95;5.75;;;4.90;99.90;;;;;;4920677;29;20043;-86
2022/04/18 01:47:18;;;;;;;11.27;6.32;;;4.90;99.90;;;;;;4921844;29;20112;-86
2022/04/18 01:49:45;;;;;;;9.00;5.60;;;4.90;99.90;;;;;;4922061;29;20037;-86
2022/04/18 01:52:10;;;;;;;9.63;6.30;;;4.80;99.90;;;;;;4922813;29;20077;-86
2022/04/18 01:54:38;;;;;;;11.93;5.93;;;4.90;99.90;;;;;;4923017;29;20123;-87
2022/04/18 01:57:04;;;;;;;8.93;6.07;;;4.80;99.90;;;;;;4920487;29;20160;-87
2022/04/18 01:59:30;;;;;;;11.18;6.25;;;4.90;99.90;;;;;;4915990;29;20040;-85
2022/04/18 02:01:57;;;;;;;13.00;6.07;;;4.90;99.90;;;;;;4922006;29;20084;-87
2022/04/18 02:04:23;;;;;;;10.23;6.00;;;4.90;99.90;;;;;;4917320;29;20044;-85
2022/04/18 02:06:49;;;;;;;12.60;6.47;;;4.90;99.90;;;;;;4917626;29;20068;-86
2022/04/18 02:09:15;;;;;;;10.43;6.38;;;4.80;99.90;;;;;;4902477;29;20088;-86
2022/04/18 02:11:41;;;;;;;13.60;6.50;;;4.80;99.90;;;;;;4916767;29;20061;-86
2022/04/18 02:14:07;;;;;;;11.00;6.15;;;4.80;99.90;;;;;;4916469;29;20032;-85
2022/04/18 02:16:33;;;;;;;9.70;6.05;;;4.80;99.90;;;;;;4918516;29;20148;-86
2022/04/18 02:19:02;;;;;;;14.73;6.50;;;4.80;99.90;;;;;;4922141;29;20040;-86
2022/04/18 02:21:28;;;;;;;12.00;6.43;;;4.80;99.90;;;;;;4918665;29;20024;-86
2022/04/18 02:23:54;;;;;;;9.93;6.45;;;4.70;99.90;;;;;;4915882;29;20058;-86
2022/04/18 02:26:20;;;;;;;11.48;6.32;;;4.70;99.90;;;;;;4917179;29;20024;-86
2022/04/18 02:28:55;;;;;;;10.43;6.50;;;4.60;99.90;;;;;;4915851;29;20036;-86
2022/04/18 02:31:21;;;;;;;12.18;6.68;;;4.70;99.90;;;;;;4916689;29;20051;-86
2022/04/18 02:33:47;;;;;;;10.48;6.18;;;4.60;99.90;;;;;;4915326;29;20025;-86
2022/04/18 02:36:14;;;;;;;10.18;6.25;;;4.60;99.90;;;;;;4915269;29;20500;-85
2022/04/18 02:38:40;;;;;;;10.30;6.93;;;4.60;99.90;;;;;;4916834;29;20021;-85
2022/04/18 02:41:06;;;;;;;11.20;7.80;;;4.50;99.90;;;;;;4922814;29;20032;-85
2022/04/18 02:43:32;;;;;;;10.73;6.30;;;4.50;99.90;;;;;;4917882;29;20028;-87
2022/04/18 02:46:04;;;;;;;12.63;6.65;;;4.40;99.90;;;;;;4902471;29;20489;-85
2022/04/18 02:48:37;;;;;;;12.05;6.40;;;4.40;99.90;;;;;;4916640;29;20032;-86
2022/04/18 02:51:09;;;;;;;11.20;6.28;;;4.40;99.90;;;;;;4916747;29;20037;-86
2022/04/18 02:53:35;;;;;;;10.32;6.28;;;4.30;99.90;;;;;;4900770;29;20092;-86
2022/04/18 02:56:06;;;;;;;14.13;7.10;;;4.30;99.90;;;;;;4914521;29;20055;-84
2022/04/18 02:58:35;;;;;;;15.00;6.97;;;4.30;99.90;;;;;;4921657;29;20052;-86
2022/04/18 03:01:01;;;;;;;12.75;7.28;;;4.20;99.90;;;;;;4902288;29;20080;-85
2022/04/18 03:03:28;;;;;;;13.50;6.78;;;4.20;99.90;;;;;;4917813;29;20029;-84
2022/04/18 03:05:54;;;;;;;11.15;6.43;;;4.20;99.90;;;;;;4917969;29;20029;-85
2022/04/18 03:08:21;;;;;;;15.10;7.22;;;4.20;99.90;;;;;;4924056;29;20041;-86
2022/04/18 03:11:02;;;;;;;10.73;6.78;;;4.20;99.90;;;;;;4923806;29;20041;-86
2022/04/18 03:13:30;;;;;;;12.90;6.30;;;4.20;99.90;;;;;;4923213;29;20052;-87
2022/04/18 03:15:57;;;;;;;13.05;7.00;;;4.10;99.90;;;;;;4913586;29;20036;-85
2022/04/18 03:18:24;;;;;;;11.38;6.55;;;4.10;99.90;;;;;;4909874;29;20100;-85
2022/04/18 03:20:49;;;;;;;14.02;6.80;;;4.10;99.90;;;;;;4921623;29;20029;-86
2022/04/18 03:23:16;;;;;;;11.85;7.25;;;4.10;99.90;;;;;;4915028;29;20031;-85
2022/04/18 03:26:00;;;;;;;11.82;7.43;;;4.10;99.90;;;;;;4921232;29;20027;-86
2022/04/18 03:28:35;;;;;;;12.48;7.53;;;4.20;99.90;;;;;;4921926;29;20048;-86
2022/04/18 03:31:01;;;;;;;11.30;6.82;;;4.10;99.90;;;;;;4921202;29;20077;-86
2022/04/18 03:33:26;;;;;;;11.65;7.40;;;4.10;99.90;;;;;;4920837;29;20043;-86
2022/04/18 03:41:22;;;;;;;14.68;8.40;;;4.10;99.90;;;;;;4920971;29;20032;-86
2022/04/18 03:43:48;;;;;;;15.80;7.82;;;4.10;99.90;;;;;;4918907;29;20048;-85
2022/04/18 03:46:14;;;;;;;14.57;7.93;;;4.10;99.90;;;;;;4916566;29;20036;-84
2022/04/18 03:48:40;;;;;;;16.85;8.68;;;4.10;99.90;;;;;;4915649;29;20033;-86
2022/04/18 03:51:06;;;;;;;14.95;8.80;;;4.00;99.90;;;;;;4917178;29;20706;-86
2022/04/18 03:53:32;;;;;;;16.65;7.97;;;4.00;99.90;;;;;;4916799;29;20033;-86
2022/04/18 03:55:58;;;;;;;16.60;7.80;;;3.90;99.90;;;;;;4915487;29;20066;-85
2022/04/18 03:58:44;;;;;;;16.27;7.78;;;3.90;99.90;;;;;;4912416;29;20027;-85
2022/04/18 04:01:12;;;;;;;14.43;8.10;;;3.90;99.90;;;;;;4919857;29;20021;-86
2022/04/18 04:03:38;;;;;;;16.38;8.68;;;3.90;99.90;;;;;;4916259;29;20127;-85
2022/04/18 04:06:04;;;;;;;12.32;7.88;;;3.80;99.90;;;;;;4917240;29;20029;-85
2022/04/18 04:08:31;;;;;;;13.10;8.13;;;3.90;99.90;;;;;;4916927;29;20029;-87
2022/04/18 04:11:01;;;;;;;15.30;8.45;;;3.80;99.90;;;;;;4902908;29;20025;-86
2022/04/18 04:13:30;;;;;;;19.48;8.68;;;3.90;99.90;;;;;;4916202;29;20036;-86
2022/04/18 04:16:14;;;;;;;13.02;8.43;;;3.90;99.90;;;;;;4914940;29;20032;-84
2022/04/18 04:18:40;;;;;;;14.18;8.43;;;3.90;99.90;;;;;;4921337;29;20031;-86
2022/04/18 04:21:08;;;;;;;15.18;8.93;;;3.90;99.90;;;;;;4919182;29;20040;-86
2022/04/18 04:23:34;;;;;;;14.82;8.65;;;3.90;99.90;;;;;;4917699;29;20016;-87
2022/04/18 04:26:05;;;;;;;13.25;8.40;;;3.90;99.90;;;;;;4918297;29;20012;-85
2022/04/18 04:28:48;;;;;;;13.55;7.68;;;3.90;99.90;;;;;;4917476;29;20037;-86
2022/04/18 04:31:22;;;;;;;14.60;8.27;;;4.00;99.90;;;;;;4918985;29;20040;-86
2022/04/18 04:33:48;;;;;;;15.23;7.70;;;4.10;99.90;;;;;;4919718;29;20283;-86
2022/04/18 04:36:15;;;;;;;11.43;7.10;;;4.10;99.90;;;;;;4920036;29;20035;-86
2022/04/18 04:38:43;;;;;;;15.20;7.55;;;4.10;99.90;;;;;;4902331;29;20092;-86
2022/04/18 04:41:16;;;;;;;13.05;7.25;;;4.20;99.90;;;;;;4921082;29;20031;-86
2022/04/18 04:43:51;;;;;;;13.55;7.63;;;4.30;99.90;;;;;;4920539;29;20048;-87
2022/04/18 04:46:22;;;;;;;15.93;7.57;;;4.50;99.90;;;;;;4919637;29;20068;-86
2022/04/18 04:48:58;;;;;;;12.52;7.65;;;4.60;99.90;;;;;;4905707;29;20032;-85
2022/04/18 04:51:24;;;;;;;15.00;7.50;;;4.70;99.90;;;;;;4919888;29;20040;-86
2022/04/18 04:53:51;;;;;;;11.40;6.72;;;4.80;99.90;;;;;;4920867;29;20033;-86
2022/04/18 04:56:28;;;;;;;11.82;7.32;;;4.90;99.90;;;;;;4920152;29;20036;-85
2022/04/18 04:58:56;;;;;;;10.95;6.75;;;5.10;99.90;;;;;;4920947;29;20036;-85
2022/04/18 05:01:23;;;;;;;13.57;6.78;;;5.20;99.90;;;;;;4920961;29;20021;-85
2022/04/18 05:03:54;;;;;;;9.95;6.50;;;5.30;99.90;;;;;;4922036;29;20021;-85
2022/04/18 05:06:21;;;;;;;14.90;6.68;;;5.40;99.90;;;;;;4921813;29;20172;-84
2022/04/18 05:08:47;;;;;;;11.10;6.65;;;5.50;99.90;;;;;;4921864;29;20037;-86
2022/04/18 05:11:14;;;;;;;11.32;6.68;;;5.60;99.90;;;;;;4921626;29;20020;-85
2022/04/18 05:13:48;;;;;;;10.18;6.18;;;5.60;99.90;;;;;;4921789;29;20025;-86
2022/04/18 05:16:16;;;;;;;12.73;6.43;;;5.70;99.90;;;;;;4923514;29;20020;-86
2022/04/18 05:19:17;;;;;;;13.80;6.57;;;5.70;99.90;;;;;;4906384;29;20029;-86
2022/04/18 05:21:44;;;;;;;10.85;6.28;;;5.80;99.90;;;;;;4921666;29;20102;-85
2022/04/18 05:24:23;;;;;;;10.20;5.82;;;5.90;99.90;;;;;;4925233;29;20043;-85
2022/04/18 05:26:49;;;;;;;11.68;7.40;;;6.00;99.90;;;;;;4925381;29;20048;-86
2022/04/18 05:29:16;;;;;;;9.93;6.45;;;6.00;99.90;;;;;;4925308;29;20047;-86
2022/04/18 05:31:44;;;;;;;11.70;7.10;;;6.10;99.90;;;;;;4925073;29;20040;-86
2022/04/18 05:34:10;;;;;;;14.52;7.30;;;6.20;99.90;;;;;;4923879;29;20037;-85
2022/04/18 05:36:47;;;;;;;13.65;7.72;;;6.20;99.90;;;;;;4921356;29;20036;-86
2022/04/18 05:39:23;;;;;;;13.23;7.10;;;6.30;99.90;;;;;;4921834;29;20125;-85
2022/04/18 05:41:49;;;;;;;17.42;8.32;;;6.40;99.90;;;;;;4921680;29;20029;-85
2022/04/18 05:44:20;;;;;;;16.60;7.88;;;6.40;99.90;;;;;;4907485;29;20024;-86
2022/04/18 05:46:54;;;;;;;15.77;8.77;;;6.40;99.90;;;;;;4924115;29;20033;-86
2022/04/18 05:49:21;;;;;;;16.92;8.50;;;6.40;99.90;;;;;;4924267;29;20033;-86
2022/04/18 05:51:49;;;;;;;15.13;8.18;;;6.40;99.90;;;;;;4938027;23;20053;-83
2022/04/18 05:54:15;;;;;;;14.10;7.88;;;6.50;99.90;;;;;;4913158;29;20473;-80
2022/04/18 05:56:48;;;;;;;13.98;8.55;;;6.60;99.90;;;;;;4912553;29;20056;-83
2022/04/18 05:59:22;;;;;;;11.95;7.70;;;6.70;99.90;;;;;;4913133;29;20043;-83
2022/04/18 06:01:56;;;;;;;13.30;8.27;;;6.80;99.90;;;;;;4914292;29;20035;-82
2022/04/18 06:04:31;;;;;;;;;;;6.90;99.90;;;;;;4914828;29;20037;-83
2022/04/18 06:07:17;;;;;;;11.60;8.10;;;7.00;99.90;;;;;;4901550;29;19911;-83
2022/04/18 06:09:47;;;;;;;10.63;6.25;;;7.20;99.90;;;;;;4910443;29;20093;-83
2022/04/18 06:12:13;;;;;;;11.98;6.45;;;7.30;99.90;;;;;;4907853;29;20370;-82
2022/04/18 06:14:39;;;;;;;13.25;7.35;;;7.40;99.90;;;;;;4910489;29;20142;-83
2022/04/18 06:17:06;;;;;;;14.30;7.10;;;7.50;99.90;;;;;;4911582;29;20027;-83
2022/04/18 06:19:33;;;;;;;12.68;7.85;;;7.50;99.90;;;;;;4900918;29;20096;-81
2022/04/18 06:22:03;;;;;;;10.82;6.88;;;7.50;99.90;;;;;;4920098;29;20008;-81
2022/04/18 06:24:29;;;;;;;11.88;7.03;;;7.50;99.90;;;;;;4916173;29;20036;-84
2022/04/18 06:27:04;;;;;;;9.97;6.80;;;7.50;99.90;;;;;;4901310;29;20021;-81
2022/04/18 06:29:33;;;;;;;12.23;7.43;;;7.50;99.90;;;;;;4917563;29;20062;-81
2022/04/18 06:32:00;;;;;;;9.75;6.22;;;7.50;99.90;;;;;;4901703;29;20051;-83
2022/04/18 06:34:26;;;;;;;10.40;6.80;;;7.50;99.90;;;;;;4919249;29;20100;-82
2022/04/18 06:36:53;;;;;;;9.88;6.30;;;7.60;99.90;;;;;;4915396;29;20052;-82
2022/04/18 06:39:31;;;;;;;13.20;7.50;;;7.70;99.90;;;;;;4914566;29;20024;-81
2022/04/18 06:42:24;;;;;;;15.85;7.50;;;7.60;99.90;;;;;;4884437;29;20100;-82
2022/04/18 06:45:00;;;;;;;13.60;7.47;;;7.60;99.90;;;;;;4915320;29;20029;-82
2022/04/18 06:47:26;;;;;;;13.15;6.68;;;7.60;99.90;;;;;;4915272;29;20036;-83
2022/04/18 06:50:12;;;;;;;;;;;7.60;99.90;;;;;;4915443;29;20048;-82
2022/04/18 06:52:57;;;;;;;14.15;8.02;;;7.70;99.90;;;;;;4915597;29;19918;-82
2022/04/18 06:58:52;;;;;;;15.10;7.45;;;7.90;99.90;;;;;;4915888;29;20111;-82
2022/04/18 07:01:19;;;;;;;10.55;6.80;;;8.00;99.90;;;;;;4913399;29;20067;-83
2022/04/18 07:03:45;;;;;;;13.45;7.10;;;8.00;99.90;;;;;;4913163;29;20036;-81
2022/04/18 07:06:11;;;;;;;15.10;7.00;;;8.10;99.90;;;;;;4914482;29;20168;-82
2022/04/18 07:08:38;;;;;;;10.93;6.35;;;8.20;99.90;;;;;;4909299;29;20029;-83
2022/04/18 07:11:30;;;;;;;11.05;6.65;;;8.20;99.90;;;;;;4910496;29;20032;-83
2022/04/18 07:13:56;;;;;;;10.98;6.93;;;8.20;99.90;;;;;;4914513;29;20060;-82
2022/04/18 07:16:22;;;;;;;10.27;5.90;;;8.30;99.90;;;;;;4916490;29;20020;-84
2022/04/18 07:18:49;;;;;;;9.13;6.32;;;8.40;99.80;;;;;;4920290;29;20092;-81
2022/04/18 07:21:16;;;;;;;9.13;5.75;;;8.50;99.50;;;;;;4912931;29;20025;-82
2022/04/18 07:23:42;;;;;;;10.65;6.05;;;8.60;99.40;;;;;;4907919;29;20087;-83
2022/04/18 07:26:09;;;;;;;15.48;6.25;;;8.80;99.10;;;;;;4896424;29;20062;-83
2022/04/18 07:28:38;;;;;;;9.15;5.68;;;8.90;98.70;;;;;;4914878;29;20036;-84
2022/04/18 07:31:07;;;;;;;10.30;5.40;;;9.00;98.50;;;;;;4913485;29;20544;-80
2022/04/18 07:33:34;;;;;;;8.50;5.32;;;9.20;98.20;;;;;;4911404;29;20075;-85
2022/04/18 07:36:03;;;;;;;8.07;4.20;;;9.30;97.90;;;;;;4909745;29;20032;-83
2022/04/18 07:41:23;;;;;;;7.78;4.38;;;9.30;96.00;;;;;;4910566;29;20056;-80
2022/04/18 07:43:51;;;;;;;11.40;3.28;;;9.30;95.70;;;;;;4894623;29;20636;-82
2022/04/18 07:46:17;;;;;;;5.25;3.35;;;9.30;93.30;;;;;;4908885;29;20028;-82
2022/04/18 07:48:46;;;;;;;5.88;2.90;;;9.30;92.70;;;;;;4892601;29;20040;-81
2022/04/18 07:53:57;;;;;;;6.68;3.53;;;9.30;92.60;;;;;;4906009;29;20067;-80
2022/04/18 07:56:23;;;;;;;10.40;3.38;;;9.30;92.10;;;;;;4905259;29;20048;-80
2022/04/18 07:58:50;;;;;;;8.10;2.63;;;9.20;92.10;;;;;;4908421;29;20047;-79
2022/04/18 08:01:24;;;;;;;6.07;3.53;;;9.20;92.10;;;;;;4914747;29;20465;-82
2022/04/18 08:03:52;;;;;;;6.22;3.55;;;9.10;92.30;;;;;;4913780;29;20033;-81
2022/04/18 08:06:18;;;;;;;5.25;3.20;;;9.10;92.60;;;;;;4907378;29;20553;-83
2022/04/18 08:08:54;;;;;;;5.60;3.20;;;9.00;92.40;;;;;;4906787;29;20036;-81
2022/04/18 08:11:20;;;;;;;5.00;3.22;;;8.90;92.20;;;;;;4906976;29;20342;-82
2022/04/18 08:13:50;;;;;;;5.97;3.55;;;8.80;92.80;;;;;;4905369;29;20032;-81
2022/04/18 08:16:34;;;;;;;7.82;3.58;;;8.70;93.20;;;;;;4908182;29;20052;-83
2022/04/18 08:19:05;;;;;;;9.35;3.35;;;8.80;92.80;;;;;;4891218;29;20048;-82
2022/04/18 08:21:32;;;;;;;6.90;3.17;;;8.90;92.60;;;;;;4906876;29;20039;-80
2022/04/18 08:24:00;;;;;;;19.38;7.75;;;8.90;92.70;;;;;;4908710;29;20453;-84
2022/04/18 08:26:26;;;;;;;9.00;3.22;;;8.80;93.10;;;;;;4910021;29;20040;-81
2022/04/18 08:28:55;;;;;;;5.78;3.10;;;8.80;93.20;;;;;;4905789;29;20028;-83
2022/04/18 08:31:22;;;;;;;7.60;3.33;;;8.80;93.40;;;;;;4908875;29;20040;-83
2022/04/18 08:34:03;;;;;;;8.98;3.05;;;8.80;93.90;;;;;;4910515;29;20084;-78
2022/04/18 08:36:33;;;;;;;12.52;3.70;;;8.70;94.70;;;;;;4909868;29;20031;-81
2022/04/18 08:39:02;;;;;;;4.72;2.95;;;8.80;95.10;;;;;;4907765;29;20033;-81
2022/04/18 08:41:38;;;;;;;6.35;3.20;;;8.80;95.30;;;;;;4911784;29;20048;-80
2022/04/18 08:44:09;;;;;;;7.78;3.05;;;8.80;95.50;;;;;;4919371;29;20032;-80
2022/04/18 08:46:36;;;;;;;7.93;3.20;;;8.90;95.50;;;;;;4920000;29;20091;-79
2022/04/18 08:54:43;;;;;;;14.13;6.05;;;9.10;95.10;;;;;;4925610;29;20059;-82
2022/04/18 08:57:09;;;;;;;7.25;3.15;;;9.10;94.70;;;;;;4909507;29;20069;-82
2022/04/18 08:59:35;;;;;;;7.95;3.10;;;9.00;94.50;;;;;;4924167;29;20039;-80
2022/04/18 09:02:04;;;;;;;7.60;3.47;;;9.00;94.30;;;;;;4924477;29;20029;-81
2022/04/18 09:05:13;;;;;;;9.95;3.75;;;9.00;94.60;;;;;;4856646;29;20037;-81
2022/04/18 09:07:44;;;;;;;8.65;3.17;;;8.90;94.30;;;;;;4911877;29;20056;-81
2022/04/18 09:10:13;;;;;;;4.90;2.80;;;8.80;94.30;;;;;;4921063;29;20110;-83
2022/04/18 09:12:43;;;;;;;7.10;3.67;;;8.80;94.50;;;;;;4919436;29;20027;-81
2022/04/18 09:15:40;;;;;;;6.93;3.13;;;8.70;94.90;;;;;;4917127;29;20040;-82
2022/04/18 09:18:17;;;;;;;5.78;3.53;;;8.90;94.90;;;;;;4905640;29;20035;-84
2022/04/18 09:21:04;;;;;;;7.05;3.50;;;8.90;95.20;;;;;;4921695;29;20039;-85
2022/04/18 09:23:38;;;;;;;5.97;3.50;;;8.90;95.00;;;;;;4924637;29;20259;-84
2022/04/18 09:26:24;;;;;;;5.80;3.50;;;8.80;95.00;;;;;;4917044;29;20031;-84
2022/04/18 09:28:50;;;;;;;12.13;3.47;;;8.80;95.10;;;;;;4925171;29;20043;-83
2022/04/18 09:31:23;;;;;;;5.95;3.78;;;8.80;95.20;;;;;;4922379;29;20039;-82
2022/04/18 09:33:59;;;;;;;9.60;3.80;;;8.70;95.40;;;;;;4921776;29;20016;-84
2022/04/18 09:36:27;;;;;;;11.90;3.53;;;8.80;95.70;;;;;;4922599;29;20027;-84
2022/04/18 09:38:55;;;;;;;5.20;3.15;;;8.80;96.00;;;;;;4923890;29;20027;-83
2022/04/18 09:41:26;;;;;;;11.32;3.35;;;8.90;96.00;;;;;;4922180;29;20060;-84
2022/04/18 09:43:54;;;;;;;5.43;3.50;;;9.20;96.10;;;;;;4921569;29;20040;-83
2022/04/18 09:46:31;;;;;;;8.15;3.42;;;9.30;96.00;;;;;;4920810;29;20035;-84
2022/04/18 09:49:05;;;;;;;9.70;3.63;;;9.70;95.80;;;;;;4921994;29;20024;-84
2022/04/18 09:51:37;;;;;;;6.75;3.97;;;10.10;95.50;;;;;;4922924;29;20224;-82
2022/04/18 09:54:11;;;;;;;8.13;3.95;;;10.40;95.30;;;;;;4920738;29;20117;-83
2022/04/18 09:56:48;;;;;;;6.82;3.72;;;10.50;95.30;;;;;;4923446;29;20032;-83
2022/04/18 09:59:14;;;;;;;7.82;3.80;;;10.90;95.20;;;;;;4923053;29;20097;-80
2022/04/18 10:01:40;;;;;;;8.93;4.03;;;11.50;94.10;;;;;;4920116;29;20024;-83
2022/04/18 10:04:08;;;;;;;7.50;3.78;;;11.90;93.50;;;;;;4917318;29;20044;-82
2022/04/18 10:06:35;;;;;;;8.55;3.70;;;12.30;93.10;;;;;;4919851;29;20012;-82
2022/04/18 10:09:01;;;;;;;6.97;3.88;;;12.50;93.00;;;;;;4920730;29;20103;-83
2022/04/18 10:11:28;;;;;;;7.45;3.50;;;13.00;92.50;;;;;;4920270;29;20040;-83
2022/04/18 10:13:54;;;;;;;9.18;3.55;;;13.40;91.80;;;;;;4919883;29;20057;-82
2022/04/18 10:16:21;;;;;;;7.57;4.00;;;13.40;91.70;;;;;;4918176;29;20004;-84
2022/04/18 10:18:54;;;;;;;7.07;3.40;;;13.40;91.50;;;;;;4915570;29;20041;-83
2022/04/18 10:21:34;;;;;;;6.53;3.47;;;13.30;90.80;;;;;;4912241;29;20032;-83
2022/04/18 10:24:31;;;;;;;10.57;3.90;;;13.20;90.90;;;;;;4909479;29;20060;-84
2022/04/18 10:27:08;;;;;;;6.47;3.50;;;13.20;90.30;;;;;;4911201;29;20048;-83
2022/04/18 10:29:42;;;;;;;6.10;3.50;;;13.40;90.40;;;;;;4910853;29;20134;-84
2022/04/18 10:32:09;;;;;;;7.78;3.22;;;13.30;90.20;;;;;;4912225;29;20040;-84
2022/04/18 10:34:35;;;;;;;5.40;3.33;;;13.10;90.10;;;;;;4913508;29;20123;-85
2022/04/18 10:37:03;;;;;;;7.25;3.42;;;12.80;90.30;;;;;;4913057;29;20077;-82
2022/04/18 10:39:34;;;;;;;4.82;3.15;;;12.30;90.80;;;;;;4911972;29;20033;-83
2022/04/18 10:42:23;;;;;;;8.32;3.80;;;12.10;90.90;;;;;;4912067;29;20032;-84
2022/04/18 10:45:09;;;;;;;7.22;3.70;;;12.20;91.20;;;;;;4912269;29;20090;-85
2022/04/18 10:48:03;;;;;;;7.10;3.47;;;12.40;91.20;;;;;;4909343;29;20052;-84
2022/04/18 10:50:41;;;;;;;6.45;3.50;;;12.50;90.90;;;;;;4911101;29;20095;-83
2022/04/18 10:53:20;;;;;;;7.72;4.05;;;12.80;90.80;;;;;;4909953;29;20169;-84
2022/04/18 10:55:53;;;;;;;9.73;4.13;;;13.40;90.10;;;;;;4909032;29;20029;-84
2022/04/18 10:58:23;;;;;;;11.23;4.30;;;13.60;89.60;;;;;;4909202;29;20048;-82
2022/04/18 11:00:54;;;;;;;5.50;3.28;;;14.00;88.70;;;;;;4916090;29;20032;-85
2022/04/18 11:03:39;;;;;;;6.15;3.28;;;14.90;84.70;;;;;;4908522;29;20040;-85
2022/04/18 11:06:08;;;;;;;5.97;3.38;;;16.10;82.40;;;;;;4908353;29;20032;-83
2022/04/18 11:08:37;;;;;;;6.45;3.45;;;17.00;80.10;;;;;;4907910;29;20033;-84
2022/04/18 11:11:04;;;;;;;9.77;5.18;;;18.20;77.80;;;;;;4908476;29;20036;-84
2022/04/18 11:13:33;;;;;;;7.13;3.15;;;18.90;74.10;;;;;;4912139;29;20088;-85
2022/04/18 11:16:35;;;;;;;7.03;3.33;;;20.20;71.30;;;;;;4920731;29;20017;-84
2022/04/18 11:19:24;;;;;;;8.38;3.50;;;20.30;66.80;;;;;;4907822;29;20044;-82
2022/04/18 11:24:40;;;;;;;5.40;3.70;;;21.20;64.80;;;;;;4909008;29;20047;-84
2022/04/18 11:27:11;;;;;;;5.20;3.17;;;21.60;62.70;;;;;;4910379;29;20041;-83
2022/04/18 11:29:38;;;;;;;5.72;3.47;;;20.90;62.60;;;;;;4916279;29;20040;-84
2022/04/18 11:32:09;;;;;;;6.90;3.70;;;21.20;62.50;;;;;;4919439;29;20029;-83
2022/04/18 11:34:37;;;;;;;6.18;3.75;;;21.80;61.90;;;;;;4919700;29;20025;-82
2022/04/18 11:37:08;;;;;;;8.43;3.92;;;22.30;60.00;;;;;;4919252;29;20024;-83
2022/04/18 11:39:53;;;;;;;9.52;3.80;;;23.20;58.50;;;;;;4913795;29;20413;-83
2022/04/18 11:42:20;;;;;;;6.25;3.65;;;23.00;57.40;;;;;;4915818;29;20044;-83
2022/04/18 11:44:47;;;;;;;8.27;3.67;;;22.20;58.10;;;;;;4918406;29;20088;-83
2022/04/18 11:47:25;;;;;;;6.13;3.38;;;21.60;58.50;;;;;;4919582;29;20127;-83
2022/04/18 11:49:56;;;;;;;5.40;3.72;;;20.50;59.90;;;;;;4921382;29;20107;-84
2022/04/18 11:52:24;;;;;;;7.63;3.85;;;20.00;60.70;;;;;;4954288;23;20052;-87
2022/04/18 11:55:06;;;;;;;7.57;3.80;;;20.10;60.50;;;;;;4906438;29;20025;-88
2022/04/18 11:57:36;;;;;;;6.53;3.95;;;20.50;60.10;;;;;;4923037;29;20049;-88
2022/04/18 12:00:14;;;;;;;6.13;3.63;;;21.10;59.20;;;;;;4922738;29;20032;-87
2022/04/18 12:08:12;;;;;;;5.13;3.72;;;20.60;59.90;;;;;;4922827;29;20040;-87
2022/04/18 12:10:44;;;;;;;6.22;4.05;;;20.60;59.70;;;;;;4922241;29;20039;-86
2022/04/18 12:13:13;;;;;;;6.72;3.20;;;20.20;59.60;;;;;;4919161;29;20040;-86
2022/04/18 12:15:40;;;;;;;10.65;3.90;;;20.30;60.40;;;;;;4911780;29;20099;-88
2022/04/18 12:18:09;;;;;;;6.28;3.85;;;21.20;59.30;;;;;;4918072;29;20135;-87
2022/04/18 12:20:35;;;;;;;6.10;3.10;;;22.00;58.60;;;;;;4916923;29;20024;-87
2022/04/18 12:23:02;;;;;;;8.43;3.80;;;22.50;58.10;;;;;;4916955;29;20061;-86
2022/04/18 12:25:32;;;;;;;5.72;3.85;;;23.10;57.10;;;;;;4920378;29;20032;-87
2022/04/18 12:28:03;;;;;;;6.15;3.83;;;24.00;55.40;;;;;;4915833;29;20039;-88
2022/04/18 12:30:29;;;;;;;6.15;3.50;;;24.70;54.50;;;;;;4918127;29;20037;-87
2022/04/18 12:32:55;;;;;;;8.02;3.80;;;25.10;53.80;;;;;;4915812;29;20057;-87
2022/04/18 12:35:43;;;;;;;6.55;4.00;;;26.00;52.60;;;;;;4916765;29;20092;-87
2022/04/18 12:38:11;;;;;;;6.65;3.60;;;26.10;52.30;;;;;;4922042;29;20047;-87
2022/04/18 12:40:39;;;;;;;7.20;3.33;;;25.50;52.20;;;;;;4922096;29;20068;-88
2022/04/18 12:43:11;;;;;;;5.57;3.60;;;24.70;52.60;;;;;;4922081;29;20089;-87
2022/04/18 12:45:48;;;;;;;6.30;3.65;;;25.30;51.80;;;;;;4905597;29;20092;-89
2022/04/18 12:48:19;;;;;;;6.60;3.40;;;25.00;52.10;;;;;;4919231;29;20036;-89
2022/04/18 12:50:45;;;;;;;6.95;3.70;;;25.00;52.00;;;;;;4918477;29;20108;-88
2022/04/18 12:53:11;;;;;;;7.07;3.22;;;25.20;51.20;;;;;;4917755;29;20037;-88
2022/04/18 12:55:37;;;;;;;7.18;3.60;;;26.20;49.50;;;;;;4914529;29;20032;-87
2022/04/18 12:58:14;;;;;;;4.03;2.92;;;27.20;48.70;;;;;;4917757;29;20092;-87
2022/04/18 13:00:40;;;;;;;7.68;3.20;;;27.50;47.90;;;;;;4915529;29;20028;-87
2022/04/18 13:03:08;;;;;;;4.03;3.42;;;27.90;47.80;;;;;;4918223;29;20021;-88
2022/04/18 13:05:41;;;;;;;4.75;3.22;;;28.20;47.40;;;;;;4921675;29;20021;-87
2022/04/18 13:08:08;;;;;;;4.87;3.20;;;28.20;45.50;;;;;;4922459;29;20032;-89
2022/04/18 13:10:36;;;;;;;6.57;3.55;;;28.10;45.30;;;;;;4921749;29;20016;-87
2022/04/18 13:13:18;;;;;;;5.45;3.53;;;27.60;45.30;;;;;;4921543;29;20107;-88
2022/04/18 13:15:48;;;;;;;3.78;2.95;;;27.80;45.20;;;;;;4921507;29;20032;-87
2022/04/18 13:18:26;;;;;;;4.38;3.40;;;28.20;44.50;;;;;;4922354;29;20021;-87
2022/04/18 13:20:52;;;;;;;7.90;3.63;;;27.10;45.30;;;;;;4921258;29;20029;-88
2022/04/18 13:23:19;;;;;;;4.22;3.03;;;25.10;46.90;;;;;;4921351;29;20024;-87
2022/04/18 13:25:46;;;;;;;4.38;3.33;;;24.50;48.00;;;;;;4916161;29;20016;-88
2022/04/18 13:28:15;;;;;;;4.13;3.28;;;24.80;47.70;;;;;;4914128;29;20065;-87
2022/04/18 13:30:42;;;;;;;4.82;3.25;;;24.90;47.50;;;;;;4914376;29;20040;-87
2022/04/18 13:33:09;;;;;;;4.82;3.55;;;25.10;47.00;;;;;;4915214;29;20048;-88
2022/04/18 13:38:22;;;;;;;5.68;3.42;;;27.30;46.30;;;;;;4921469;29;20052;-88
2022/04/18 13:40:48;;;;;;;6.30;3.28;;;27.90;45.60;;;;;;4922502;29;20020;-87
2022/04/18 13:43:14;;;;;;;7.50;3.70;;;28.00;44.80;;;;;;4920523;29;20033;-87
2022/04/18 13:45:41;;;;;;;4.80;3.28;;;28.70;44.10;;;;;;4920455;29;20043;-88